createdAt,value
2023-01-23T00:00:47.367Z,102752.66
2023-01-23T00:03:13.784Z,102753.59
2023-01-23T00:05:40.106Z,102754.50
2023-01-23T00:08:06.468Z,102758.13
2023-01-23T00:10:32.906Z,102752.78
2023-01-23T00:12:59.333Z,102751.09
2023-01-23T00:15:27.346Z,102751.94
2023-01-23T00:17:53.828Z,102757.25
2023-01-23T00:20:20.535Z,102748.47
2023-01-23T00:22:47.013Z,102749.34
2023-01-23T00:25:13.499Z,102748.47
2023-01-23T00:27:39.883Z,102749.34
2023-01-23T00:30:06.740Z,102745.88
2023-01-23T00:32:33.224Z,102734.47
2023-01-23T00:35:00.494Z,102732.81
2023-01-23T00:37:26.821Z,102722.31
2023-01-23T00:39:53.293Z,102723.31
2023-01-23T00:42:19.617Z,102719.91
2023-01-23T00:44:45.924Z,102725.31
2023-01-23T00:47:12.926Z,102713.09
2023-01-23T00:49:39.234Z,102722.91
2023-01-23T00:52:05.580Z,102715.09
2023-01-23T00:54:31.954Z,102724.00
2023-01-23T00:56:58.356Z,102724.91
2023-01-23T00:59:24.737Z,102730.22
2023-01-23T01:01:51.164Z,102734.63
2023-01-23T01:04:17.576Z,102729.31
2023-01-23T01:06:43.950Z,102724.81
2023-01-23T01:09:10.280Z,102729.19
2023-01-23T01:11:36.638Z,102732.63
2023-01-23T01:14:04.050Z,102739.66
2023-01-23T01:16:30.699Z,102745.84
2023-01-23T01:18:57.068Z,102748.44
2023-01-23T01:21:23.422Z,102754.56
2023-01-23T01:23:49.983Z,102760.66
2023-01-23T01:26:16.374Z,102749.91
2023-01-23T01:28:42.741Z,102748.03
2023-01-23T01:31:12.977Z,102765.63
2023-01-23T01:33:41.008Z,102762.91
2023-01-23T01:36:16.751Z,102761.97
2023-01-23T01:38:43.397Z,102764.50
2023-01-23T01:41:10.543Z,102765.44
2023-01-23T01:43:37.014Z,102769.94
2023-01-23T01:46:15.831Z,102772.59
2023-01-23T01:48:44.204Z,102775.34
2023-01-23T01:51:20.715Z,102780.66
2023-01-23T01:53:50.797Z,102786.84
2023-01-23T01:56:18.955Z,102789.50
2023-01-23T01:58:48.889Z,102787.78
2023-01-23T02:01:15.916Z,102800.13
2023-01-23T02:03:44.925Z,102784.13
2023-01-23T02:06:11.769Z,102788.50
2023-01-23T02:08:52.745Z,102790.16
2023-01-23T02:11:19.596Z,102793.63
2023-01-23T02:13:46.130Z,102799.66
2023-01-23T02:16:17.801Z,102783.56
2023-01-23T02:18:48.016Z,102795.84
2023-01-23T02:21:17.002Z,102789.53
2023-01-23T02:24:05.144Z,102786.75
2023-01-23T02:26:36.660Z,102793.72
2023-01-23T02:29:04.993Z,102787.47
2023-01-23T02:31:31.626Z,102791.84
2023-01-23T02:33:59.485Z,102785.59
2023-01-23T02:36:28.891Z,102787.34
2023-01-23T02:39:01.446Z,102779.38
2023-01-23T02:41:30.979Z,102789.00
2023-01-23T02:44:00.785Z,102789.84
2023-01-23T02:46:27.309Z,102776.56
2023-01-23T02:48:54.099Z,102770.38
2023-01-23T02:51:22.162Z,102762.41
2023-01-23T02:53:48.965Z,102767.78
2023-01-23T02:56:16.219Z,102762.47
2023-01-23T02:59:01.611Z,102757.13
2023-01-23T03:01:28.126Z,102746.50
2023-01-23T03:03:58.044Z,102750.97
2023-01-23T03:06:24.503Z,102741.19
2023-01-23T03:08:50.928Z,102749.25
2023-01-23T03:11:18.808Z,102755.41
2023-01-23T03:13:46.353Z,102759.94
2023-01-23T03:16:13.036Z,102764.41
2023-01-23T03:18:52.922Z,102768.06
2023-01-23T03:21:21.130Z,102763.75
2023-01-23T03:23:48.328Z,102772.72
2023-01-23T03:26:15.422Z,102786.16
2023-01-23T03:29:00.299Z,102789.75
2023-01-23T03:31:26.647Z,102794.19
2023-01-23T03:33:53.459Z,102802.25
2023-01-23T03:36:20.981Z,102799.59
2023-01-23T03:39:06.001Z,102792.53
2023-01-23T03:41:32.386Z,102803.13
2023-01-23T03:43:58.743Z,102804.84
2023-01-23T03:46:25.177Z,102801.25
2023-01-23T03:48:51.734Z,102798.50
2023-01-23T03:51:18.113Z,102794.00
2023-01-23T03:53:44.489Z,102803.69
2023-01-23T03:56:10.916Z,102801.78
2023-01-23T03:58:37.270Z,102792.06
2023-01-23T04:01:08.518Z,102794.66
2023-01-23T04:03:35.757Z,102797.31
2023-01-23T04:06:02.292Z,102800.78
2023-01-23T04:08:29.456Z,102803.44
2023-01-23T04:11:04.060Z,102805.16
2023-01-23T04:13:30.794Z,102801.56
2023-01-23T04:15:57.255Z,102814.84
2023-01-23T04:18:24.104Z,102803.28
2023-01-23T04:20:50.525Z,102810.34
2023-01-23T04:23:17.666Z,102805.00
2023-01-23T04:25:44.339Z,102812.06
2023-01-23T04:28:10.715Z,102809.34
2023-01-23T04:30:37.219Z,102816.41
2023-01-23T04:33:03.740Z,102814.59
2023-01-23T04:35:30.409Z,102817.13
2023-01-23T04:37:56.886Z,102819.72
2023-01-23T04:40:23.338Z,102814.31
2023-01-23T04:42:49.751Z,102810.66
2023-01-23T04:45:16.393Z,102807.97
2023-01-23T04:47:42.825Z,102808.84
2023-01-23T04:50:09.800Z,102814.09
2023-01-23T04:52:36.239Z,102814.97
2023-01-23T04:55:02.643Z,102810.50
2023-01-23T04:57:29.194Z,102813.16
2023-01-23T04:59:55.629Z,102815.81
2023-01-23T05:02:22.096Z,102822.94
2023-01-23T05:04:48.596Z,102820.34
2023-01-23T05:07:15.347Z,102822.16
2023-01-23T05:09:42.102Z,102820.44
2023-01-23T05:12:08.515Z,102810.69
2023-01-23T05:14:34.978Z,102812.59
2023-01-23T05:17:01.382Z,102819.72
2023-01-23T05:19:27.817Z,102811.78
2023-01-23T05:21:54.237Z,102818.13
2023-01-23T05:24:20.669Z,102828.81
2023-01-23T05:26:47.091Z,102828.94
2023-01-23T05:29:13.542Z,102829.94
2023-01-23T05:31:40.160Z,102828.28
2023-01-23T05:34:06.572Z,102834.59
2023-01-23T05:36:32.963Z,102838.25
2023-01-23T05:38:59.399Z,102842.81
2023-01-23T05:41:25.845Z,102853.50
2023-01-23T05:43:52.271Z,102857.97
2023-01-23T05:46:18.765Z,102858.00
2023-01-23T05:48:49.218Z,102860.63
2023-01-23T05:51:15.731Z,102858.09
2023-01-23T05:53:42.210Z,102847.53
2023-01-23T05:56:09.032Z,102852.84
2023-01-23T05:58:35.353Z,102857.28
2023-01-23T06:01:03.510Z,102864.31
2023-01-23T06:03:30.005Z,102855.44
2023-01-23T06:05:56.399Z,102865.28
2023-01-23T06:08:23.011Z,102860.81
2023-01-23T06:10:49.409Z,102869.66
2023-01-23T06:13:15.910Z,102873.16
2023-01-23T06:15:42.385Z,102878.47
2023-01-23T06:18:09.173Z,102876.72
2023-01-23T06:20:35.706Z,102876.72
2023-01-23T06:23:02.177Z,102880.28
2023-01-23T06:25:28.591Z,102876.72
2023-01-23T06:27:55.161Z,102877.63
2023-01-23T06:30:21.990Z,102881.09
2023-01-23T06:32:48.618Z,102882.88
2023-01-23T06:35:15.068Z,102874.97
2023-01-23T06:37:41.807Z,102874.09
2023-01-23T06:40:13.067Z,102880.28
2023-01-23T06:42:40.708Z,102872.38
2023-01-23T06:45:08.771Z,102876.81
2023-01-23T06:47:35.817Z,102891.06
2023-01-23T06:50:02.507Z,102893.75
2023-01-23T06:52:29.727Z,102892.91
2023-01-23T06:54:56.166Z,102908.88
2023-01-23T06:57:23.025Z,102899.16
2023-01-23T06:59:49.627Z,102904.41
2023-01-23T07:02:16.401Z,102900.84
2023-01-23T07:04:42.839Z,102906.16
2023-01-23T07:07:09.178Z,102907.00
2023-01-23T07:09:35.683Z,102910.53
2023-01-23T07:12:02.018Z,102909.66
2023-01-23T07:14:28.653Z,102911.47
2023-01-23T07:16:55.547Z,102909.66
2023-01-23T07:19:23.120Z,102920.31
2023-01-23T07:21:49.533Z,102923.78
2023-01-23T07:24:15.927Z,102937.91
2023-01-23T07:26:42.317Z,102934.31
2023-01-23T07:29:11.621Z,102923.63
2023-01-23T07:31:38.172Z,102920.97
2023-01-23T07:34:04.531Z,102924.50
2023-01-23T07:36:31.137Z,102926.25
2023-01-23T07:38:58.908Z,102920.03
2023-01-23T07:41:25.666Z,102929.75
2023-01-23T07:43:52.099Z,102928.81
2023-01-23T07:46:18.592Z,102933.22
2023-01-23T07:48:44.976Z,102937.59
2023-01-23T07:51:12.088Z,102932.28
2023-01-23T07:53:38.483Z,102941.13
2023-01-23T07:56:06.159Z,102941.94
2023-01-23T07:58:33.021Z,102940.13
2023-01-23T08:01:00.012Z,102942.72
2023-01-23T08:03:28.929Z,102938.28
2023-01-23T08:05:55.542Z,102951.50
2023-01-23T08:08:21.990Z,102955.03
2023-01-23T08:10:48.333Z,102959.41
2023-01-23T08:13:14.778Z,102969.09
2023-01-23T08:15:41.185Z,102962.88
2023-01-23T08:18:07.773Z,102976.03
2023-01-23T08:20:34.292Z,102971.44
2023-01-23T08:23:02.197Z,102975.78
2023-01-23T08:25:28.865Z,102970.31
2023-01-23T08:27:55.284Z,102975.53
2023-01-23T08:30:22.168Z,102975.44
2023-01-23T08:32:48.879Z,102971.78
2023-01-23T08:35:15.592Z,102976.13
2023-01-23T08:37:42.240Z,102983.09
2023-01-23T08:40:09.607Z,102983.09
2023-01-23T08:42:35.974Z,102991.88
2023-01-23T08:45:02.302Z,102989.22
2023-01-23T08:47:28.732Z,102997.22
2023-01-23T08:49:55.079Z,103005.16
2023-01-23T08:52:21.392Z,103001.53
2023-01-23T08:54:47.939Z,103005.88
2023-01-23T08:57:14.244Z,103006.66
2023-01-23T08:59:42.473Z,103008.34
2023-01-23T09:02:11.864Z,103010.84
2023-01-23T09:04:38.310Z,103007.19
2023-01-23T09:07:04.703Z,103015.84
2023-01-23T09:09:31.156Z,103012.09
2023-01-23T09:11:57.489Z,103010.06
2023-01-23T09:14:23.967Z,103009.78
2023-01-23T09:16:52.270Z,103008.56
2023-01-23T09:19:18.736Z,103011.97
2023-01-23T09:21:45.155Z,103015.28
2023-01-23T09:24:11.638Z,103008.91
2023-01-23T09:26:38.138Z,103015.88
2023-01-23T09:29:04.549Z,103019.25
2023-01-23T09:31:31.107Z,103020.97
2023-01-23T09:33:57.752Z,103030.63
2023-01-23T09:36:41.241Z,103022.59
2023-01-23T09:39:08.719Z,103022.47
2023-01-23T09:41:35.244Z,103026.03
2023-01-23T09:44:36.919Z,103037.53
2023-01-23T09:47:27.129Z,103038.47
2023-01-23T09:50:00.524Z,103042.88
2023-01-23T09:52:36.020Z,103038.47
2023-01-23T09:55:02.519Z,103042.03
2023-01-23T09:57:36.562Z,103037.53
2023-01-23T10:00:30.066Z,103038.31
2023-01-23T10:02:57.012Z,103040.91
2023-01-23T10:05:40.339Z,103031.91
2023-01-23T10:08:34.422Z,103031.78
2023-01-23T10:11:16.082Z,103023.63
2023-01-23T10:13:45.523Z,103021.63
2023-01-23T10:16:15.114Z,103032.94
2023-01-23T10:19:16.569Z,103025.44
2023-01-23T10:21:51.764Z,103032.22
2023-01-23T10:24:40.554Z,103034.59
2023-01-23T10:27:38.857Z,103030.84
2023-01-23T10:30:18.742Z,103029.84
2023-01-23T10:32:56.220Z,103029.75
2023-01-23T10:35:32.179Z,103033.16
2023-01-23T10:38:13.950Z,103013.63
2023-01-23T10:40:59.848Z,103020.84
2023-01-23T10:43:27.207Z,103018.16
2023-01-23T10:45:53.664Z,103025.38
2023-01-23T10:48:32.281Z,103020.09
2023-01-23T10:51:00.000Z,103014.84
2023-01-23T10:53:26.575Z,103019.25
2023-01-23T10:55:57.176Z,103020.03
2023-01-23T10:58:33.053Z,103026.97
2023-01-23T11:01:01.023Z,103023.25
2023-01-23T11:03:35.672Z,103020.38
2023-01-23T11:06:04.047Z,103022.03
2023-01-23T11:08:38.876Z,103017.44
2023-01-23T11:11:26.373Z,103014.63
2023-01-23T11:14:25.254Z,103013.50
2023-01-23T11:17:03.290Z,103017.75
2023-01-23T11:19:32.196Z,103009.59
2023-01-23T11:22:04.343Z,103022.78
2023-01-23T11:24:41.020Z,103020.91
2023-01-23T11:27:44.942Z,103022.47
2023-01-23T11:30:29.823Z,103017.78
2023-01-23T11:33:05.808Z,103014.97
2023-01-23T11:35:50.745Z,103014.97
2023-01-23T11:38:30.475Z,103012.31
2023-01-23T11:40:57.380Z,103007.91
2023-01-23T11:43:23.877Z,103013.16
2023-01-23T11:45:50.201Z,103016.69
2023-01-23T11:48:42.623Z,103010.41
2023-01-23T11:51:18.995Z,103012.16
2023-01-23T11:54:00.811Z,103013.88
2023-01-23T11:56:43.814Z,103016.47
2023-01-23T11:59:30.533Z,103022.59
2023-01-23T12:02:21.607Z,103019.03
2023-01-23T12:05:25.974Z,103014.72
2023-01-23T12:08:22.103Z,103019.38
2023-01-23T12:10:59.620Z,103022.19
2023-01-23T12:13:44.408Z,103019.75
2023-01-23T12:16:30.750Z,103023.28
2023-01-23T12:19:24.814Z,103022.41
2023-01-23T12:22:15.078Z,103017.94
2023-01-23T12:24:51.221Z,103015.19
2023-01-23T12:27:44.143Z,103016.84
2023-01-23T12:30:34.172Z,103010.41
2023-01-23T12:33:17.809Z,103010.34
2023-01-23T12:35:56.731Z,103015.53
2023-01-23T12:38:49.412Z,103020.63
2023-01-23T12:41:36.285Z,103020.47
2023-01-23T12:44:21.105Z,103015.13
2023-01-23T12:46:53.858Z,103008.84
2023-01-23T12:49:26.794Z,103009.81
2023-01-23T12:52:00.868Z,103010.81
2023-01-23T12:54:42.360Z,103023.47
2023-01-23T12:57:10.913Z,103019.22
2023-01-23T12:59:47.592Z,103010.66
2023-01-23T13:02:34.274Z,103010.09
2023-01-23T13:05:16.092Z,103006.88
2023-01-23T13:07:50.476Z,103008.00
2023-01-23T13:10:24.139Z,103000.25
2023-01-23T13:12:55.925Z,103001.28
2023-01-23T13:15:39.645Z,102999.69
2023-01-23T13:18:22.256Z,103004.22
2023-01-23T13:21:18.405Z,103009.72
2023-01-23T13:23:44.865Z,103006.25
2023-01-23T13:26:19.355Z,103003.69
2023-01-23T13:28:51.442Z,103000.16
2023-01-23T13:31:34.419Z,103004.69
2023-01-23T13:34:14.903Z,103010.97
2023-01-23T13:36:53.062Z,103009.22
2023-01-23T13:39:23.532Z,103008.41
2023-01-23T13:41:52.252Z,103008.50
2023-01-23T13:44:41.626Z,103016.56
2023-01-23T14:22:43.733Z,103042.25
2023-01-23T14:25:17.368Z,103054.75
2023-01-23T14:27:53.300Z,103051.28
2023-01-23T14:30:26.686Z,103046.91
2023-01-23T14:32:53.645Z,103039.94
2023-01-23T14:35:33.097Z,103039.06
2023-01-23T14:38:04.606Z,103046.06
2023-01-23T14:40:43.112Z,103036.31
2023-01-23T14:43:22.521Z,103038.91
2023-01-23T14:45:57.052Z,103040.63
2023-01-23T14:48:23.603Z,103041.59
2023-01-23T14:50:50.244Z,103041.63
2023-01-23T14:53:17.198Z,103043.53
2023-01-23T14:55:49.610Z,103040.06
2023-01-23T14:58:23.684Z,103049.88
2023-01-23T15:00:52.137Z,103047.28
2023-01-23T15:03:35.781Z,103043.75
2023-01-23T15:06:05.726Z,103046.56
2023-01-23T15:08:33.609Z,103054.56
2023-01-23T15:11:01.734Z,103053.75
2023-01-23T15:13:36.404Z,103058.22
2023-01-23T15:16:06.499Z,103065.34
2023-01-23T15:18:34.935Z,103059.13
2023-01-23T15:21:03.682Z,103061.88
2023-01-23T15:23:37.131Z,103057.47
2023-01-23T15:26:24.486Z,103051.28
2023-01-23T15:28:50.781Z,103049.56
2023-01-23T15:31:31.251Z,103041.50
2023-01-23T15:34:13.937Z,103033.50
2023-01-23T15:36:59.047Z,103029.09
2023-01-23T15:39:51.754Z,103022.06
2023-01-23T15:42:18.042Z,103017.75
2023-01-23T15:44:44.857Z,103023.13
2023-01-23T15:47:11.472Z,103018.75
2023-01-23T15:49:40.047Z,103022.31
2023-01-23T15:52:20.385Z,103017.94
2023-01-23T15:54:47.840Z,103010.00
2023-01-23T15:57:14.632Z,103014.53
2023-01-23T15:59:41.557Z,103014.59
2023-01-23T16:02:29.085Z,103013.78
2023-01-23T16:04:56.338Z,103018.25
2023-01-23T16:07:31.312Z,103027.09
2023-01-23T16:09:57.955Z,103029.91
2023-01-23T16:12:28.800Z,103029.91
2023-01-23T16:14:56.587Z,103019.41
2023-01-23T16:17:23.382Z,103023.94
2023-01-23T16:19:50.581Z,103018.66
2023-01-23T16:22:26.701Z,103021.41
2023-01-23T16:24:53.652Z,103024.13
2023-01-23T16:27:27.057Z,103024.22
2023-01-23T16:29:54.617Z,103027.78
2023-01-23T16:32:21.116Z,103022.56
2023-01-23T16:34:47.569Z,103025.28
2023-01-23T16:37:16.523Z,103022.59
2023-01-23T16:39:44.633Z,103026.22
2023-01-23T16:42:18.570Z,103035.13
2023-01-23T16:44:44.893Z,103036.06
2023-01-23T16:47:11.232Z,103034.34
2023-01-23T16:49:51.540Z,103034.34
2023-01-23T16:52:20.565Z,103026.47
2023-01-23T16:54:47.155Z,103029.13
2023-01-23T16:57:20.062Z,103024.75
2023-01-23T16:59:48.084Z,103023.88
2023-01-23T17:02:22.097Z,103027.41
2023-01-23T17:04:48.780Z,103031.94
2023-01-23T17:07:17.177Z,103029.28
2023-01-23T17:09:44.793Z,103029.34
2023-01-23T17:12:28.207Z,103035.53
2023-01-23T17:14:55.572Z,103034.75
2023-01-23T17:17:49.253Z,103033.88
2023-01-23T17:20:15.584Z,103034.88
2023-01-23T17:22:42.739Z,103049.13
2023-01-23T17:25:20.677Z,103056.22
2023-01-23T17:28:00.015Z,103047.38
2023-01-23T17:30:33.976Z,103046.53
2023-01-23T17:33:00.387Z,103046.53
2023-01-23T17:35:36.223Z,103049.19
2023-01-23T17:38:03.670Z,103053.66
2023-01-23T17:40:30.264Z,103056.22
2023-01-23T17:42:56.987Z,103043.81
2023-01-23T17:45:26.085Z,103049.13
2023-01-23T17:47:55.077Z,103053.50
2023-01-23T17:50:24.274Z,103056.22
2023-01-23T17:52:52.079Z,103061.56
2023-01-23T17:55:21.934Z,103061.63
2023-01-23T17:57:49.449Z,103059.97
2023-01-23T18:00:20.977Z,103055.56
2023-01-23T18:03:01.292Z,103055.66
2023-01-23T18:05:28.010Z,103054.84
2023-01-23T18:07:54.640Z,103057.63
2023-01-23T18:10:21.968Z,103064.75
2023-01-23T18:13:16.436Z,103072.81
2023-01-23T18:16:04.026Z,103079.97
2023-01-23T18:18:35.570Z,103080.91
2023-01-23T18:21:04.375Z,103080.13
2023-01-23T18:23:32.574Z,103074.88
2023-01-23T18:26:23.015Z,103075.78
2023-01-23T18:29:06.114Z,103083.84
2023-01-23T18:32:01.336Z,103092.75
2023-01-23T18:34:41.740Z,103090.09
2023-01-23T18:37:26.481Z,103096.34
2023-01-23T18:40:29.198Z,103107.91
2023-01-23T18:43:33.429Z,103099.91
2023-01-23T18:45:59.971Z,103101.81
2023-01-23T18:48:26.826Z,103105.31
2023-01-23T18:51:03.176Z,103105.47
2023-01-23T18:53:41.787Z,103095.72
2023-01-23T18:56:34.381Z,103103.69
2023-01-23T18:59:11.509Z,103102.84
2023-01-23T19:01:52.223Z,103098.47
2023-01-23T19:04:21.543Z,103100.19
2023-01-23T19:06:48.245Z,103096.72
2023-01-23T19:09:20.589Z,103103.78
2023-01-23T19:12:02.315Z,103109.09
2023-01-23T19:14:59.893Z,103109.03
2023-01-23T19:17:41.258Z,103118.75
2023-01-23T19:20:19.741Z,103115.16
2023-01-23T19:22:52.589Z,103114.31
2023-01-23T19:25:19.515Z,103115.25
2023-01-23T19:27:52.583Z,103120.47
2023-01-23T19:30:22.147Z,103114.31
2023-01-23T19:32:49.508Z,103110.78
2023-01-23T19:35:16.640Z,103109.91
2023-01-23T19:37:45.042Z,103104.59
2023-01-23T19:40:13.511Z,103114.31
2023-01-23T19:42:52.346Z,103119.63
2023-01-23T19:45:25.222Z,103126.66
2023-01-23T19:47:53.306Z,103119.63
2023-01-23T19:50:21.280Z,103124.94
2023-01-23T19:52:48.895Z,103126.78
2023-01-23T19:55:30.422Z,103131.22
2023-01-23T19:57:56.945Z,103121.56
2023-01-23T20:00:29.595Z,103130.41
2023-01-23T20:02:56.367Z,103130.44
2023-01-23T20:05:23.932Z,103133.09
2023-01-23T20:07:50.698Z,103137.56
2023-01-23T20:10:17.518Z,103135.84
2023-01-23T20:12:52.364Z,103142.94
2023-01-23T20:15:21.866Z,103143.88
2023-01-23T20:17:48.594Z,103143.03
2023-01-23T20:20:15.615Z,103141.25
2023-01-23T20:22:43.397Z,103144.81
2023-01-23T20:25:14.860Z,103140.34
2023-01-23T20:27:41.907Z,103142.16
2023-01-23T20:30:13.390Z,103141.25
2023-01-23T20:32:40.092Z,103139.50
2023-01-23T20:35:06.740Z,103135.94
2023-01-23T20:37:33.171Z,103134.22
2023-01-23T20:39:59.613Z,103128.91
2023-01-23T20:42:26.008Z,103120.97
2023-01-23T20:44:52.362Z,103118.31
2023-01-23T20:47:18.839Z,103122.78
2023-01-23T20:49:45.194Z,103123.72
2023-01-23T20:52:29.785Z,103128.16
2023-01-23T20:54:56.111Z,103127.28
2023-01-23T20:57:22.464Z,103114.91
2023-01-23T20:59:48.867Z,103118.53
2023-01-23T21:02:24.276Z,103122.97
2023-01-23T21:04:51.821Z,103124.69
2023-01-23T21:07:21.180Z,103119.38
2023-01-23T21:09:47.963Z,103117.66
2023-01-23T21:12:14.654Z,103116.75
2023-01-23T21:14:41.082Z,103120.38
2023-01-23T21:17:08.861Z,103118.69
2023-01-23T21:19:37.423Z,103121.34
2023-01-23T21:22:05.922Z,103129.38
2023-01-23T21:24:34.337Z,103124.06
2023-01-23T21:27:02.538Z,103125.94
2023-01-23T21:29:29.783Z,103125.13
2023-01-23T21:31:57.605Z,103126.03
2023-01-23T21:34:25.401Z,103130.50
2023-01-23T21:36:52.084Z,103129.63
2023-01-23T21:39:19.155Z,103134.09
2023-01-23T21:41:45.672Z,103134.09
2023-01-23T21:44:12.300Z,103129.69
2023-01-23T21:46:39.050Z,103134.09
2023-01-23T21:49:05.436Z,103141.22
2023-01-23T21:51:32.424Z,103136.81
2023-01-23T21:53:58.893Z,103132.34
2023-01-23T21:56:25.567Z,103131.44
2023-01-23T21:58:52.803Z,103131.47
2023-01-23T22:01:41.050Z,103133.16
2023-01-23T22:04:20.609Z,103127.84
2023-01-23T22:06:47.048Z,103134.97
2023-01-23T22:09:18.220Z,103139.34
2023-01-23T22:11:45.492Z,103141.13
2023-01-23T22:14:11.839Z,103139.34
2023-01-23T22:16:53.826Z,103140.22
2023-01-23T22:19:25.041Z,103143.66
2023-01-23T22:21:55.175Z,103145.47
2023-01-23T22:24:21.893Z,103144.56
2023-01-23T22:26:48.453Z,103149.88
2023-01-23T22:29:15.209Z,103148.09
2023-01-23T22:31:41.732Z,103152.47
2023-01-23T22:34:08.231Z,103147.09
2023-01-23T22:36:34.737Z,103147.09
2023-01-23T22:39:01.115Z,103150.56
2023-01-23T22:41:28.507Z,103147.84
2023-01-23T22:43:56.551Z,103156.63
2023-01-23T22:46:23.655Z,103156.63
2023-01-23T22:48:50.645Z,103151.22
2023-01-23T22:51:24.522Z,103162.69
2023-01-23T22:53:52.598Z,103163.63
2023-01-23T22:56:19.511Z,103167.13
2023-01-23T22:58:50.704Z,103157.34
2023-01-23T23:01:17.939Z,103161.81
2023-01-23T23:03:45.414Z,103168.94
2023-01-23T23:06:13.986Z,103167.13
2023-01-23T23:08:40.655Z,103168.00
2023-01-23T23:11:18.545Z,103170.63
2023-01-23T23:13:45.654Z,103175.94
2023-01-23T23:16:18.326Z,103167.88
2023-01-23T23:18:46.874Z,103173.19
2023-01-23T23:21:15.972Z,103172.28
2023-01-23T23:23:42.649Z,103174.94
2023-01-23T23:26:10.348Z,103171.34
2023-01-23T23:28:37.518Z,103169.50
2023-01-23T23:31:04.587Z,103170.34
2023-01-23T23:33:31.285Z,103172.09
2023-01-23T23:35:58.025Z,103177.31
2023-01-23T23:38:24.570Z,103169.25
2023-01-23T23:40:57.980Z,103165.66
2023-01-23T23:43:24.801Z,103157.69
2023-01-23T23:45:52.410Z,103163.00
2023-01-23T23:48:19.825Z,103159.41
2023-01-23T23:50:47.423Z,103162.03
2023-01-23T23:53:14.050Z,103160.22
2023-01-23T23:55:40.370Z,103159.34
2023-01-23T23:58:06.888Z,103159.28
